Decoded Metar for LFOE (EVREUX in FRANCE) (IATA:N/A) | Meteo·Mobile Aviation Weather
aviador You're here:

LFOE Decoded Metar

EVREUX in FRANCE
Report Time2019-09-21 08:30:00
UTC Time2019-09-21 08:49:48
Flight Rules vfr VFR
Wind120° at 06 kt
W.Decomp.*RWY 04: 0.9 kt HW 5.9 kt RCW
Visibility9999 m
Phenomena:N/A
Clouds:N/A
Expected CloudBase > 4,800 ft AGL from Temp-Dew spread
CeilingNone
Temp17°C (ISA +3)
Dew Point05°C (45% RH)
AAT13.7°C
QNH1014 hPa
Density Alt915 ft
Elevation479 ft
Report Wrong Elevation
Raw Report
METAR LFOE 210830Z AUTO 12006KT 090V150 CAVOK 17/05 Q1014 NOSIG=

Extra information for LFOE:More info

Metar Taf Metar & Taf Last 4 Metars F.Rules Stats Wind Profile Meteogram Temp Stats Airport Information Weather charts Add Link Nearby VenuesMetar ALERT Operation Metar Decoded Social comments